createdAt,value
2023-03-22T00:01:31.129Z,17.05
2023-03-22T00:04:03.523Z,14.98
2023-03-22T00:07:27.340Z,16.10
2023-03-22T00:10:05.746Z,15.52
2023-03-22T00:16:22.780Z,14.30
2023-03-22T00:19:11.629Z,15.75
2023-03-22T00:21:44.679Z,16.67
2023-03-22T00:25:08.882Z,15.00
2023-03-22T00:27:57.227Z,14.63
2023-03-22T00:30:29.934Z,15.57
2023-03-22T00:33:44.655Z,18.27
2023-03-22T00:36:32.875Z,14.95
2023-03-22T00:39:05.624Z,15.70
2023-03-22T00:41:37.847Z,14.48
2023-03-22T00:44:12.811Z,16.58
2023-03-22T00:47:10.555Z,18.63
2023-03-22T00:49:42.855Z,17.20
2023-03-22T00:52:32.328Z,15.02
2023-03-22T00:55:05.197Z,15.55
2023-03-22T00:57:54.220Z,15.85
2023-03-22T01:00:26.836Z,16.38
2023-03-22T01:03:04.743Z,15.65
2023-03-22T01:05:49.927Z,14.50
2023-03-22T01:11:10.973Z,15.15
2023-03-22T01:14:00.917Z,15.57
2023-03-22T01:16:35.758Z,15.63
2023-03-22T01:19:12.059Z,16.75
2023-03-22T01:21:44.218Z,16.60
2023-03-22T01:24:17.005Z,16.13
2023-03-22T01:26:49.083Z,16.35
2023-03-22T01:29:21.374Z,15.23
2023-03-22T01:31:54.071Z,16.90
2023-03-22T01:35:00.142Z,15.15
2023-03-22T01:37:32.907Z,15.82
2023-03-22T01:40:06.772Z,15.02
2023-03-22T01:42:39.002Z,16.05
2023-03-22T01:45:14.271Z,16.75
2023-03-22T01:47:59.071Z,16.27
2023-03-22T01:50:31.855Z,15.63
2023-03-22T01:53:06.917Z,16.00
2023-03-22T01:55:39.376Z,16.65
2023-03-22T01:58:11.938Z,15.15
2023-03-22T02:00:46.729Z,16.60
2023-03-22T02:03:31.119Z,17.13
2023-03-22T02:06:03.942Z,16.85
2023-03-22T02:08:36.154Z,18.45
2023-03-22T02:11:15.545Z,16.50
2023-03-22T02:14:09.272Z,16.33
2023-03-22T02:17:14.121Z,15.80
2023-03-22T02:20:38.501Z,16.17
2023-03-22T02:24:06.810Z,16.98
2023-03-22T02:27:06.640Z,15.75
2023-03-22T02:29:53.859Z,17.60
2023-03-22T02:32:34.666Z,16.40
2023-03-22T02:35:32.912Z,16.92
2023-03-22T02:38:54.378Z,15.90
2023-03-22T02:41:48.304Z,15.30
2023-03-22T02:44:27.142Z,17.17
2023-03-22T02:47:09.888Z,15.77
2023-03-22T02:49:49.544Z,13.90
2023-03-22T02:52:43.300Z,15.32
2023-03-22T02:55:43.635Z,16.05
2023-03-22T03:01:06.844Z,14.52
2023-03-22T03:03:39.874Z,12.98
2023-03-22T03:06:17.145Z,14.95
2023-03-22T03:08:53.644Z,13.57
2023-03-22T03:11:25.908Z,13.15
2023-03-22T03:13:58.434Z,12.63
2023-03-22T03:16:35.144Z,12.35
2023-03-22T03:19:26.910Z,13.50
2023-03-22T03:22:19.052Z,14.18
2023-03-22T03:25:43.434Z,13.43
2023-03-22T03:28:43.372Z,12.90
2023-03-22T03:31:37.388Z,13.02
2023-03-22T03:34:32.928Z,12.65
2023-03-22T03:37:16.099Z,13.23
2023-03-22T03:40:11.119Z,13.15
2023-03-22T03:42:49.729Z,13.38
2023-03-22T03:45:23.341Z,12.48
2023-03-22T03:48:00.781Z,13.13
2023-03-22T03:50:33.454Z,13.30
2023-03-22T03:53:06.376Z,14.20
2023-03-22T03:55:38.469Z,13.30
2023-03-22T03:58:10.768Z,11.88
2023-03-22T04:00:44.398Z,13.32
2023-03-22T04:03:17.085Z,12.40
2023-03-22T04:05:49.128Z,12.80
2023-03-22T04:08:24.030Z,12.07
2023-03-22T04:10:56.116Z,13.38
2023-03-22T04:13:28.098Z,11.73
2023-03-22T04:16:02.283Z,12.73
2023-03-22T04:18:34.863Z,12.18
2023-03-22T04:21:07.827Z,12.02
2023-03-22T04:23:41.137Z,11.98
2023-03-22T04:26:13.804Z,11.77
2023-03-22T04:28:45.859Z,11.68
2023-03-22T04:31:18.752Z,11.25
2023-03-22T04:33:55.065Z,10.30
2023-03-22T04:36:31.669Z,10.45
2023-03-22T04:39:34.964Z,10.88
2023-03-22T04:42:17.027Z,10.43
2023-03-22T04:44:50.605Z,10.60
2023-03-22T04:52:07.408Z,10.00
2023-03-22T04:54:40.267Z,10.18
2023-03-22T04:57:14.798Z,12.15
2023-03-22T04:59:51.360Z,11.20
2023-03-22T05:02:41.652Z,10.50
2023-03-22T05:07:48.779Z,10.48
2023-03-22T05:10:44.977Z,10.52
2023-03-22T05:13:17.040Z,10.13
2023-03-22T05:15:50.081Z,10.25
2023-03-22T05:18:32.937Z,11.52
2023-03-22T05:21:08.761Z,9.88
2023-03-22T05:23:44.983Z,10.43
2023-03-22T05:26:27.287Z,10.68
2023-03-22T05:29:00.536Z,10.13
2023-03-22T05:35:05.060Z,11.65
2023-03-22T05:37:38.375Z,10.57
2023-03-22T05:40:12.672Z,11.07
2023-03-22T05:42:47.423Z,11.73
2023-03-22T05:45:20.853Z,10.68
2023-03-22T05:47:53.434Z,10.93
2023-03-22T05:50:25.774Z,10.52
2023-03-22T05:52:59.104Z,10.60
2023-03-22T05:55:32.307Z,10.27
2023-03-22T05:58:05.363Z,11.30
2023-03-22T06:00:51.695Z,11.05
2023-03-22T06:03:24.252Z,12.02
2023-03-22T06:05:56.512Z,11.93
2023-03-22T06:08:28.767Z,12.77
2023-03-22T06:11:00.995Z,12.98
2023-03-22T06:13:33.496Z,13.50
2023-03-22T06:16:06.338Z,14.93
2023-03-22T06:18:39.492Z,12.63
2023-03-22T06:23:58.285Z,13.43
2023-03-22T06:26:30.560Z,13.82
2023-03-22T06:29:03.800Z,12.20
2023-03-22T06:31:35.997Z,14.07
2023-03-22T06:34:08.226Z,13.63
2023-03-22T06:36:41.154Z,12.85
2023-03-22T06:39:13.342Z,13.43
2023-03-22T06:41:45.869Z,14.30
2023-03-22T06:44:18.762Z,12.27
2023-03-22T06:46:51.314Z,13.73
2023-03-22T06:49:24.294Z,13.85
2023-03-22T06:51:56.730Z,12.68
2023-03-22T06:54:28.839Z,11.65
2023-03-22T06:57:01.008Z,14.18
2023-03-22T06:59:33.639Z,12.88
2023-03-22T07:02:06.912Z,12.07
2023-03-22T07:04:39.358Z,11.50
2023-03-22T07:07:11.582Z,12.63
2023-03-22T07:09:44.210Z,12.85
2023-03-22T07:12:16.932Z,12.55
2023-03-22T07:14:49.733Z,13.25
2023-03-22T07:17:21.926Z,11.77
2023-03-22T07:19:54.295Z,11.85
2023-03-22T07:22:27.713Z,11.52
2023-03-22T07:25:01.683Z,10.80
2023-03-22T07:27:34.115Z,11.50
2023-03-22T07:30:09.705Z,10.35
2023-03-22T07:32:41.983Z,12.27
2023-03-22T07:35:14.369Z,10.20
2023-03-22T07:37:49.108Z,11.00
2023-03-22T07:40:22.596Z,10.57
2023-03-22T07:42:55.972Z,10.43
2023-03-22T07:45:28.778Z,10.68
2023-03-22T07:48:01.854Z,10.27
2023-03-22T07:50:34.794Z,9.35
2023-03-22T07:53:06.899Z,10.70
2023-03-22T07:55:43.154Z,10.18
2023-03-22T07:58:15.541Z,10.15
2023-03-22T08:00:49.805Z,10.73
2023-03-22T08:03:22.441Z,10.10
2023-03-22T08:05:54.697Z,10.32
2023-03-22T08:08:27.590Z,10.43
2023-03-22T08:10:59.846Z,10.43
2023-03-22T08:13:32.517Z,10.05
2023-03-22T08:16:06.257Z,8.75
2023-03-22T08:18:38.368Z,8.65
2023-03-22T08:21:11.059Z,8.68
2023-03-22T08:23:43.267Z,8.32
2023-03-22T08:26:16.096Z,7.93
2023-03-22T08:28:48.158Z,8.10
2023-03-22T08:31:21.283Z,7.50
2023-03-22T08:33:53.458Z,7.07
2023-03-22T08:36:25.813Z,7.43
2023-03-22T08:38:58.083Z,6.78
2023-03-22T08:41:31.469Z,6.85
2023-03-22T08:44:03.612Z,7.55
2023-03-22T08:46:36.076Z,6.68
2023-03-22T08:49:10.579Z,6.25
2023-03-22T08:51:42.883Z,6.25
2023-03-22T08:54:15.108Z,6.93
2023-03-22T08:56:48.468Z,5.50
2023-03-22T08:59:20.749Z,6.90
2023-03-22T09:01:53.002Z,5.20
2023-03-22T09:04:25.185Z,5.53
2023-03-22T09:06:57.664Z,5.70
2023-03-22T09:09:29.831Z,5.43
2023-03-22T09:12:02.139Z,5.07
2023-03-22T09:14:34.262Z,6.28
2023-03-22T09:17:16.064Z,5.18
2023-03-22T09:19:48.371Z,4.85
2023-03-22T09:22:20.463Z,4.75
2023-03-22T09:24:57.585Z,5.55
2023-03-22T09:27:29.938Z,4.68
2023-03-22T09:30:03.656Z,4.03
2023-03-22T09:32:36.244Z,4.35
2023-03-22T09:35:08.582Z,4.75
2023-03-22T09:37:40.674Z,3.83
2023-03-22T09:40:13.757Z,4.63
2023-03-22T09:42:49.823Z,4.22
2023-03-22T09:45:38.572Z,3.95
2023-03-22T09:48:20.772Z,3.70
2023-03-22T09:50:54.864Z,4.22
2023-03-22T09:53:30.762Z,5.85
2023-03-22T09:56:24.994Z,4.15
2023-03-22T09:59:30.195Z,4.57
2023-03-22T10:02:47.473Z,3.72
2023-03-22T10:05:30.481Z,3.42
2023-03-22T10:08:37.424Z,3.75
2023-03-22T10:11:32.348Z,3.05
2023-03-22T10:14:36.662Z,3.17
2023-03-22T10:17:19.091Z,2.80
2023-03-22T10:20:09.667Z,3.42
2023-03-22T10:22:44.946Z,4.10
2023-03-22T10:25:22.878Z,2.97
2023-03-22T10:27:56.012Z,3.25
2023-03-22T10:30:37.889Z,3.42
2023-03-22T10:33:50.606Z,3.25
2023-03-22T10:36:27.835Z,3.70
2023-03-22T10:39:16.868Z,3.17
2023-03-22T10:41:50.072Z,3.20
2023-03-22T10:44:51.472Z,2.70
2023-03-22T10:48:29.191Z,3.00
2023-03-22T10:51:02.390Z,2.85
2023-03-22T10:53:51.087Z,2.83
2023-03-22T10:56:23.191Z,2.63
2023-03-22T10:59:11.485Z,2.90
2023-03-22T11:03:08.868Z,2.20
2023-03-22T11:05:47.415Z,2.60
2023-03-22T11:12:01.036Z,4.57
2023-03-22T11:25:28.635Z,1.98
2023-03-22T11:28:26.311Z,2.00
2023-03-22T11:31:08.638Z,2.45
2023-03-22T11:34:00.143Z,2.38
2023-03-22T11:40:19.627Z,2.05
2023-03-22T11:46:24.075Z,2.67
2023-03-22T11:49:09.534Z,2.13
2023-03-22T11:51:42.956Z,3.10
2023-03-22T11:54:39.289Z,1.90
2023-03-22T11:57:17.462Z,1.60
2023-03-22T12:00:02.268Z,2.10
2023-03-22T12:03:01.108Z,2.90
2023-03-22T12:05:37.889Z,2.08
2023-03-22T12:08:56.535Z,1.88
2023-03-22T12:12:26.659Z,2.25
2023-03-22T12:16:59.699Z,3.65
2023-03-22T12:31:43.852Z,2.95
2023-03-22T12:34:20.276Z,3.28
2023-03-22T12:36:59.226Z,3.03
2023-03-22T12:39:53.958Z,3.00
2023-03-22T12:42:50.389Z,3.00
2023-03-22T12:45:43.947Z,4.03
2023-03-22T12:48:43.411Z,3.38
2023-03-22T12:54:27.975Z,3.97
2023-03-22T12:57:04.105Z,4.20
2023-03-22T13:00:19.267Z,3.20
2023-03-22T13:03:32.935Z,4.03
2023-03-22T13:09:30.635Z,2.67
2023-03-22T13:12:22.189Z,2.75
2023-03-22T13:15:34.794Z,3.40
2023-03-22T13:21:32.691Z,2.85
2023-03-22T13:24:32.636Z,3.40
2023-03-22T13:27:16.520Z,4.35
2023-03-22T13:30:06.510Z,3.35
2023-03-22T13:33:03.907Z,3.22
2023-03-22T13:38:35.122Z,2.83
2023-03-22T13:41:41.592Z,3.40
2023-03-22T13:44:47.774Z,3.25
2023-03-22T13:47:59.058Z,3.30
2023-03-22T13:50:42.686Z,3.28
2023-03-22T13:57:06.772Z,5.20
2023-03-22T14:00:52.532Z,4.53
2023-03-22T14:07:45.192Z,4.00
2023-03-22T14:11:29.760Z,4.28
2023-03-22T14:15:12.943Z,3.70
2023-03-22T14:18:28.129Z,4.38
2023-03-22T14:52:34.867Z,3.85
2023-03-22T14:55:20.179Z,3.63
2023-03-22T14:58:01.568Z,3.55
2023-03-22T15:01:09.278Z,3.28
2023-03-22T15:03:41.645Z,3.53
2023-03-22T15:06:30.899Z,2.95
2023-03-22T15:09:12.664Z,3.20
2023-03-22T15:12:09.092Z,2.55
2023-03-22T15:14:54.043Z,3.78
2023-03-22T15:20:31.737Z,3.13
2023-03-22T15:24:14.199Z,3.40
2023-03-22T15:27:17.100Z,3.42
2023-03-22T15:29:50.329Z,3.63
2023-03-22T15:32:31.829Z,3.83
2023-03-22T15:35:08.401Z,4.15
2023-03-22T15:37:54.956Z,4.25
2023-03-22T15:40:49.790Z,2.90
2023-03-22T15:47:10.610Z,3.53
2023-03-22T15:50:04.662Z,3.50
2023-03-22T15:53:22.912Z,3.15
2023-03-22T15:55:55.827Z,3.00
2023-03-22T15:59:42.781Z,3.03
2023-03-22T16:05:44.184Z,3.15
2023-03-22T16:08:16.850Z,4.07
2023-03-22T16:10:49.458Z,3.90
2023-03-22T16:13:25.764Z,3.88
2023-03-22T16:19:31.032Z,4.07
2023-03-22T16:22:03.207Z,4.32
2023-03-22T16:24:40.333Z,4.15
2023-03-22T16:27:16.412Z,4.60
2023-03-22T16:29:51.495Z,4.88
2023-03-22T16:32:33.868Z,4.78
2023-03-22T16:35:32.302Z,5.05
2023-03-22T16:38:04.769Z,5.07
2023-03-22T16:40:52.764Z,4.97
2023-03-22T16:43:28.320Z,6.20
2023-03-22T16:46:04.499Z,4.68
2023-03-22T16:48:46.997Z,5.30
2023-03-22T16:51:28.643Z,4.47
2023-03-22T16:54:00.949Z,5.10
2023-03-22T16:56:39.494Z,5.70
2023-03-22T16:59:11.781Z,4.25
2023-03-22T17:01:46.817Z,3.40
2023-03-22T17:04:19.173Z,3.80
2023-03-22T17:07:26.866Z,3.38
2023-03-22T17:10:01.006Z,4.57
2023-03-22T17:12:46.998Z,4.38
2023-03-22T17:15:41.887Z,4.20
2023-03-22T17:50:50.115Z,4.03
2023-03-22T17:54:00.541Z,4.57
2023-03-22T18:08:25.978Z,7.00
2023-03-22T18:14:26.994Z,7.65
2023-03-22T18:17:03.587Z,7.40
2023-03-22T18:22:20.392Z,7.93
2023-03-22T18:25:01.538Z,8.48
2023-03-22T18:28:13.006Z,8.45
2023-03-22T18:30:52.556Z,8.27
2023-03-22T18:33:46.999Z,7.97
2023-03-22T18:36:29.612Z,8.50
2023-03-22T18:39:56.250Z,8.70
2023-03-22T18:42:20.650Z,8.52
2023-03-22T18:48:48.085Z,7.43
2023-03-22T18:55:35.951Z,7.25
2023-03-22T18:58:09.070Z,6.85
2023-03-22T19:00:55.623Z,6.88
2023-03-22T19:04:04.433Z,6.70
2023-03-22T19:07:00.908Z,6.53
2023-03-22T19:17:46.421Z,5.30
2023-03-22T19:24:44.129Z,5.47
2023-03-22T19:28:30.063Z,4.93
2023-03-22T19:34:07.419Z,5.18
2023-03-22T19:36:49.180Z,4.88
2023-03-22T19:47:25.910Z,4.97
2023-03-22T19:50:26.488Z,4.70
2023-03-22T19:57:21.488Z,4.97
2023-03-22T20:00:28.408Z,5.30
2023-03-22T20:02:45.893Z,6.93
2023-03-22T20:05:21.060Z,6.05
2023-03-22T20:07:54.636Z,6.72
2023-03-22T20:10:29.810Z,6.78
2023-03-22T20:13:11.438Z,6.82
2023-03-22T20:16:04.535Z,6.53
2023-03-22T20:22:44.007Z,7.07
2023-03-22T20:28:12.905Z,8.40
2023-03-22T20:30:47.821Z,9.05
2023-03-22T20:33:25.635Z,9.35
2023-03-22T20:39:29.237Z,9.40
2023-03-22T20:42:19.318Z,10.30
2023-03-22T20:49:02.232Z,9.68
2023-03-22T20:56:57.559Z,8.95
2023-03-22T20:59:30.727Z,9.13
2023-03-22T21:02:05.908Z,9.20
2023-03-22T21:04:38.270Z,7.45
2023-03-22T21:07:17.335Z,8.75
2023-03-22T21:10:00.888Z,7.50
2023-03-22T21:12:46.493Z,8.35
2023-03-22T21:15:18.652Z,8.07
2023-03-22T21:17:59.524Z,7.78
2023-03-22T21:20:32.825Z,7.30
2023-03-22T21:23:22.301Z,8.45
2023-03-22T21:30:06.231Z,7.85
2023-03-22T21:35:53.435Z,7.95
2023-03-22T21:36:36.546Z,8.60
2023-03-22T21:47:56.469Z,7.75
2023-03-22T21:54:22.353Z,8.80
2023-03-22T21:56:57.655Z,7.95
2023-03-22T21:59:30.142Z,9.77
2023-03-22T22:02:02.918Z,9.20
2023-03-22T22:04:35.093Z,10.63
2023-03-22T22:07:07.823Z,10.13
2023-03-22T22:09:41.903Z,10.65
2023-03-22T22:12:14.635Z,11.35
2023-03-22T22:14:46.818Z,11.73
2023-03-22T22:17:18.951Z,12.45
2023-03-22T22:19:51.340Z,12.05
2023-03-22T22:22:23.444Z,13.55
2023-03-22T22:24:55.477Z,14.27
2023-03-22T22:27:27.633Z,14.10
2023-03-22T22:29:59.923Z,14.77
2023-03-22T22:32:36.689Z,17.58
2023-03-22T22:35:11.137Z,16.92
2023-03-22T22:37:43.330Z,17.83
2023-03-22T22:40:16.558Z,19.15
2023-03-22T22:42:48.688Z,18.85
2023-03-22T22:45:21.126Z,20.67
2023-03-22T22:47:53.865Z,20.15
2023-03-22T22:50:25.973Z,19.20
2023-03-22T22:52:58.475Z,19.38
2023-03-22T22:55:31.038Z,20.52
2023-03-22T22:58:04.117Z,20.17
2023-03-22T23:00:36.453Z,21.05
2023-03-22T23:03:08.723Z,21.98
2023-03-22T23:05:41.739Z,20.88
2023-03-22T23:08:14.220Z,22.10
2023-03-22T23:10:53.269Z,22.40
2023-03-22T23:13:27.715Z,23.75
2023-03-22T23:16:03.356Z,23.60
2023-03-22T23:18:36.899Z,24.25
2023-03-22T23:21:15.144Z,24.38
2023-03-22T23:23:50.016Z,24.27
2023-03-22T23:26:22.997Z,23.65
2023-03-22T23:28:59.343Z,23.38
2023-03-22T23:31:32.106Z,23.58
2023-03-22T23:34:04.429Z,23.55
2023-03-22T23:36:36.973Z,23.67
2023-03-22T23:39:09.173Z,24.35
2023-03-22T23:41:41.484Z,23.38
2023-03-22T23:44:16.212Z,23.30
2023-03-22T23:46:48.517Z,23.67
2023-03-22T23:49:20.891Z,23.13
2023-03-22T23:51:53.199Z,23.92
2023-03-22T23:54:25.895Z,20.83
2023-03-22T23:56:58.023Z,19.88
2023-03-22T23:59:30.615Z,20.23
